sensor_id;sensor_type;location;lat;lon;timestamp;temperature;humidity
23124;DHT22;11731;48.592;8.858;2023-06-26T00:00:02;21.50;93.00
23124;DHT22;11731;48.592;8.858;2023-06-26T00:02:29;21.50;93.00
23124;DHT22;11731;48.592;8.858;2023-06-26T00:04:58;21.40;93.00
23124;DHT22;11731;48.592;8.858;2023-06-26T00:07:28;21.40;93.10
23124;DHT22;11731;48.592;8.858;2023-06-26T00:09:54;21.40;93.20
23124;DHT22;11731;48.592;8.858;2023-06-26T00:12:23;21.20;93.30
23124;DHT22;11731;48.592;8.858;2023-06-26T00:14:49;21.10;93.70
23124;DHT22;11731;48.592;8.858;2023-06-26T00:17:16;21.00;94.40
23124;DHT22;11731;48.592;8.858;2023-06-26T00:19:43;20.90;94.70
23124;DHT22;11731;48.592;8.858;2023-06-26T00:22:10;20.90;95.30
23124;DHT22;11731;48.592;8.858;2023-06-26T00:24:37;21.00;95.30
23124;DHT22;11731;48.592;8.858;2023-06-26T00:27:04;20.80;95.40
23124;DHT22;11731;48.592;8.858;2023-06-26T00:29:32;20.80;95.50
23124;DHT22;11731;48.592;8.858;2023-06-26T00:31:59;20.60;95.50
23124;DHT22;11731;48.592;8.858;2023-06-26T00:34:26;20.70;95.90
23124;DHT22;11731;48.592;8.858;2023-06-26T00:36:53;20.70;96.10
23124;DHT22;11731;48.592;8.858;2023-06-26T00:39:20;20.60;96.20
23124;DHT22;11731;48.592;8.858;2023-06-26T00:41:47;20.50;96.20
23124;DHT22;11731;48.592;8.858;2023-06-26T00:44:14;20.40;96.50
23124;DHT22;11731;48.592;8.858;2023-06-26T00:46:42;20.40;96.60
23124;DHT22;11731;48.592;8.858;2023-06-26T00:49:09;20.40;96.60
23124;DHT22;11731;48.592;8.858;2023-06-26T00:51:37;20.20;97.30
23124;DHT22;11731;48.592;8.858;2023-06-26T00:54:04;20.30;97.40
23124;DHT22;11731;48.592;8.858;2023-06-26T00:56:32;20.20;97.40
23124;DHT22;11731;48.592;8.858;2023-06-26T00:58:59;20.30;97.40
23124;DHT22;11731;48.592;8.858;2023-06-26T01:01:26;20.10;97.50
23124;DHT22;11731;48.592;8.858;2023-06-26T01:03:54;20.20;97.30
23124;DHT22;11731;48.592;8.858;2023-06-26T01:06:24;20.10;97.10
23124;DHT22;11731;48.592;8.858;2023-06-26T01:08:52;20.00;97.20
23124;DHT22;11731;48.592;8.858;2023-06-26T01:11:19;20.10;97.20
23124;DHT22;11731;48.592;8.858;2023-06-26T01:13:46;20.10;97.30
23124;DHT22;11731;48.592;8.858;2023-06-26T01:16:14;20.00;97.70
23124;DHT22;11731;48.592;8.858;2023-06-26T01:18:45;20.00;97.90
23124;DHT22;11731;48.592;8.858;2023-06-26T01:21:16;20.00;98.00
23124;DHT22;11731;48.592;8.858;2023-06-26T01:23:56;19.90;98.20
23124;DHT22;11731;48.592;8.858;2023-06-26T01:26:29;19.80;98.30
23124;DHT22;11731;48.592;8.858;2023-06-26T01:28:57;19.90;98.40
23124;DHT22;11731;48.592;8.858;2023-06-26T01:31:26;19.90;98.40
23124;DHT22;11731;48.592;8.858;2023-06-26T01:33:54;19.90;98.50
23124;DHT22;11731;48.592;8.858;2023-06-26T01:36:22;19.90;98.50
23124;DHT22;11731;48.592;8.858;2023-06-26T01:38:49;19.80;98.90
23124;DHT22;11731;48.592;8.858;2023-06-26T01:41:16;19.80;98.90
23124;DHT22;11731;48.592;8.858;2023-06-26T01:43:58;19.80;99.10
23124;DHT22;11731;48.592;8.858;2023-06-26T01:46:30;19.70;99.20
23124;DHT22;11731;48.592;8.858;2023-06-26T01:49:03;19.60;99.50
23124;DHT22;11731;48.592;8.858;2023-06-26T01:51:38;19.50;99.50
23124;DHT22;11731;48.592;8.858;2023-06-26T01:54:10;19.50;99.70
23124;DHT22;11731;48.592;8.858;2023-06-26T01:56:40;19.60;99.50
23124;DHT22;11731;48.592;8.858;2023-06-26T01:59:11;19.50;99.70
23124;DHT22;11731;48.592;8.858;2023-06-26T02:01:39;19.40;99.80
23124;DHT22;11731;48.592;8.858;2023-06-26T02:04:06;19.40;99.90
23124;DHT22;11731;48.592;8.858;2023-06-26T02:06:33;19.30;99.80
23124;DHT22;11731;48.592;8.858;2023-06-26T02:09:00;19.30;99.90
23124;DHT22;11731;48.592;8.858;2023-06-26T02:11:27;19.40;99.90
23124;DHT22;11731;48.592;8.858;2023-06-26T02:13:54;19.30;99.90
23124;DHT22;11731;48.592;8.858;2023-06-26T02:16:22;19.30;99.90
23124;DHT22;11731;48.592;8.858;2023-06-26T02:18:49;19.40;99.90
23124;DHT22;11731;48.592;8.858;2023-06-26T02:21:16;19.40;99.90
23124;DHT22;11731;48.592;8.858;2023-06-26T02:23:43;19.40;99.90
23124;DHT22;11731;48.592;8.858;2023-06-26T02:26:10;19.40;99.90
23124;DHT22;11731;48.592;8.858;2023-06-26T02:28:37;19.30;99.90
23124;DHT22;11731;48.592;8.858;2023-06-26T02:31:03;19.30;99.90
23124;DHT22;11731;48.592;8.858;2023-06-26T02:33:32;19.20;99.90
23124;DHT22;11731;48.592;8.858;2023-06-26T02:35:59;19.10;99.90
23124;DHT22;11731;48.592;8.858;2023-06-26T02:38:26;19.10;99.90
23124;DHT22;11731;48.592;8.858;2023-06-26T02:40:53;18.80;99.90
23124;DHT22;11731;48.592;8.858;2023-06-26T02:43:20;18.80;99.90
23124;DHT22;11731;48.592;8.858;2023-06-26T02:45:47;18.80;99.90
23124;DHT22;11731;48.592;8.858;2023-06-26T02:48:14;18.90;99.90
23124;DHT22;11731;48.592;8.858;2023-06-26T02:50:42;18.90;99.90
23124;DHT22;11731;48.592;8.858;2023-06-26T02:53:11;18.90;99.90
23124;DHT22;11731;48.592;8.858;2023-06-26T02:55:38;18.90;99.90
23124;DHT22;11731;48.592;8.858;2023-06-26T02:58:05;18.80;99.90
23124;DHT22;11731;48.592;8.858;2023-06-26T03:00:32;18.70;99.90
23124;DHT22;11731;48.592;8.858;2023-06-26T03:02:58;18.50;99.90
23124;DHT22;11731;48.592;8.858;2023-06-26T03:05:26;18.50;99.90
23124;DHT22;11731;48.592;8.858;2023-06-26T03:07:54;18.40;99.90
23124;DHT22;11731;48.592;8.858;2023-06-26T03:10:21;18.50;99.90
23124;DHT22;11731;48.592;8.858;2023-06-26T03:12:49;18.50;99.90
23124;DHT22;11731;48.592;8.858;2023-06-26T03:15:16;18.50;99.90
23124;DHT22;11731;48.592;8.858;2023-06-26T03:17:42;18.50;99.90
23124;DHT22;11731;48.592;8.858;2023-06-26T03:20:09;18.40;99.90
23124;DHT22;11731;48.592;8.858;2023-06-26T03:22:36;18.40;99.90
23124;DHT22;11731;48.592;8.858;2023-06-26T03:25:05;18.50;99.90
23124;DHT22;11731;48.592;8.858;2023-06-26T03:27:32;18.40;99.90
23124;DHT22;11731;48.592;8.858;2023-06-26T03:29:59;18.30;99.90
23124;DHT22;11731;48.592;8.858;2023-06-26T03:32:26;18.30;99.90
23124;DHT22;11731;48.592;8.858;2023-06-26T03:34:53;18.40;99.90
23124;DHT22;11731;48.592;8.858;2023-06-26T03:37:20;18.50;99.90
23124;DHT22;11731;48.592;8.858;2023-06-26T03:39:47;18.40;99.90
23124;DHT22;11731;48.592;8.858;2023-06-26T03:42:15;18.50;99.90
23124;DHT22;11731;48.592;8.858;2023-06-26T03:44:42;18.40;99.90
23124;DHT22;11731;48.592;8.858;2023-06-26T03:47:08;18.40;99.90
23124;DHT22;11731;48.592;8.858;2023-06-26T03:49:35;18.40;99.90
23124;DHT22;11731;48.592;8.858;2023-06-26T03:52:02;18.20;99.90
23124;DHT22;11731;48.592;8.858;2023-06-26T03:54:29;18.40;99.90
23124;DHT22;11731;48.592;8.858;2023-06-26T03:56:59;18.50;99.90
23124;DHT22;11731;48.592;8.858;2023-06-26T03:59:27;18.60;99.90
23124;DHT22;11731;48.592;8.858;2023-06-26T04:01:54;18.70;99.90
23124;DHT22;11731;48.592;8.858;2023-06-26T04:04:21;18.80;99.90
23124;DHT22;11731;48.592;8.858;2023-06-26T04:06:47;18.80;99.90
23124;DHT22;11731;48.592;8.858;2023-06-26T04:09:14;18.90;99.90
23124;DHT22;11731;48.592;8.858;2023-06-26T04:11:41;19.00;99.90
23124;DHT22;11731;48.592;8.858;2023-06-26T04:14:08;19.10;99.90
23124;DHT22;11731;48.592;8.858;2023-06-26T04:16:36;19.10;99.90
23124;DHT22;11731;48.592;8.858;2023-06-26T04:19:03;19.10;99.90
23124;DHT22;11731;48.592;8.858;2023-06-26T04:21:30;19.10;99.90
23124;DHT22;11731;48.592;8.858;2023-06-26T04:23:57;19.30;99.90
23124;DHT22;11731;48.592;8.858;2023-06-26T04:26:24;19.40;99.90
23124;DHT22;11731;48.592;8.858;2023-06-26T04:28:53;19.50;99.90
23124;DHT22;11731;48.592;8.858;2023-06-26T04:31:20;19.60;99.90
23124;DHT22;11731;48.592;8.858;2023-06-26T04:33:48;19.10;99.90
23124;DHT22;11731;48.592;8.858;2023-06-26T04:36:16;19.00;99.90
23124;DHT22;11731;48.592;8.858;2023-06-26T04:38:43;19.00;99.90
23124;DHT22;11731;48.592;8.858;2023-06-26T04:41:10;19.10;99.90
23124;DHT22;11731;48.592;8.858;2023-06-26T04:43:37;19.20;99.90
23124;DHT22;11731;48.592;8.858;2023-06-26T04:46:04;19.00;99.90
23124;DHT22;11731;48.592;8.858;2023-06-26T04:48:31;18.90;99.90
23124;DHT22;11731;48.592;8.858;2023-06-26T04:50:59;19.00;99.90
23124;DHT22;11731;48.592;8.858;2023-06-26T04:53:26;18.90;99.90
23124;DHT22;11731;48.592;8.858;2023-06-26T04:55:53;18.80;99.90
23124;DHT22;11731;48.592;8.858;2023-06-26T04:58:20;18.50;99.90
23124;DHT22;11731;48.592;8.858;2023-06-26T05:00:47;18.70;99.90
23124;DHT22;11731;48.592;8.858;2023-06-26T05:03:16;19.20;99.90
23124;DHT22;11731;48.592;8.858;2023-06-26T05:05:43;19.30;99.90
23124;DHT22;11731;48.592;8.858;2023-06-26T05:08:16;19.30;99.90
23124;DHT22;11731;48.592;8.858;2023-06-26T05:10:43;19.40;99.90
23124;DHT22;11731;48.592;8.858;2023-06-26T05:13:10;19.60;99.90
23124;DHT22;11731;48.592;8.858;2023-06-26T05:15:40;19.80;99.90
23124;DHT22;11731;48.592;8.858;2023-06-26T05:18:07;20.00;99.90
23124;DHT22;11731;48.592;8.858;2023-06-26T05:20:34;20.20;99.90
23124;DHT22;11731;48.592;8.858;2023-06-26T05:23:01;20.10;99.90
23124;DHT22;11731;48.592;8.858;2023-06-26T05:25:31;20.20;99.90
23124;DHT22;11731;48.592;8.858;2023-06-26T05:28:00;20.50;99.90
23124;DHT22;11731;48.592;8.858;2023-06-26T05:30:28;20.40;99.90
23124;DHT22;11731;48.592;8.858;2023-06-26T05:32:57;20.50;99.90
23124;DHT22;11731;48.592;8.858;2023-06-26T05:35:28;20.50;99.90
23124;DHT22;11731;48.592;8.858;2023-06-26T05:37:55;20.60;99.90
23124;DHT22;11731;48.592;8.858;2023-06-26T05:40:23;20.80;99.90
23124;DHT22;11731;48.592;8.858;2023-06-26T05:42:52;21.10;99.90
23124;DHT22;11731;48.592;8.858;2023-06-26T05:45:18;20.80;99.90
23124;DHT22;11731;48.592;8.858;2023-06-26T05:47:45;21.10;99.90
23124;DHT22;11731;48.592;8.858;2023-06-26T05:50:14;21.20;99.90
23124;DHT22;11731;48.592;8.858;2023-06-26T05:52:41;21.10;99.90
23124;DHT22;11731;48.592;8.858;2023-06-26T05:55:10;21.40;99.90
23124;DHT22;11731;48.592;8.858;2023-06-26T05:57:38;21.60;99.90
23124;DHT22;11731;48.592;8.858;2023-06-26T06:00:08;21.60;99.90
23124;DHT22;11731;48.592;8.858;2023-06-26T06:02:36;21.70;99.90
23124;DHT22;11731;48.592;8.858;2023-06-26T06:05:03;22.10;99.90
23124;DHT22;11731;48.592;8.858;2023-06-26T06:07:31;22.00;99.90
23124;DHT22;11731;48.592;8.858;2023-06-26T06:09:58;22.30;99.90
23124;DHT22;11731;48.592;8.858;2023-06-26T06:12:25;22.60;99.90
23124;DHT22;11731;48.592;8.858;2023-06-26T06:14:52;22.70;99.90
23124;DHT22;11731;48.592;8.858;2023-06-26T06:17:20;22.60;99.90
23124;DHT22;11731;48.592;8.858;2023-06-26T06:19:47;22.70;99.90
23124;DHT22;11731;48.592;8.858;2023-06-26T06:22:14;22.60;99.90
23124;DHT22;11731;48.592;8.858;2023-06-26T06:24:42;22.90;99.90
23124;DHT22;11731;48.592;8.858;2023-06-26T06:27:09;23.00;99.90
23124;DHT22;11731;48.592;8.858;2023-06-26T06:29:36;23.30;99.90
23124;DHT22;11731;48.592;8.858;2023-06-26T06:32:03;23.70;99.80
23124;DHT22;11731;48.592;8.858;2023-06-26T06:34:31;23.60;99.70
23124;DHT22;11731;48.592;8.858;2023-06-26T06:36:58;23.60;99.80
23124;DHT22;11731;48.592;8.858;2023-06-26T06:39:25;23.70;99.80
23124;DHT22;11731;48.592;8.858;2023-06-26T06:41:52;23.90;99.90
23124;DHT22;11731;48.592;8.858;2023-06-26T06:44:19;24.00;99.70
23124;DHT22;11731;48.592;8.858;2023-06-26T06:46:46;24.10;99.30
23124;DHT22;11731;48.592;8.858;2023-06-26T06:49:13;24.20;99.20
23124;DHT22;11731;48.592;8.858;2023-06-26T06:51:41;24.70;99.00
23124;DHT22;11731;48.592;8.858;2023-06-26T06:54:08;25.00;98.50
23124;DHT22;11731;48.592;8.858;2023-06-26T06:56:35;25.20;98.10
23124;DHT22;11731;48.592;8.858;2023-06-26T06:59:01;25.40;98.00
23124;DHT22;11731;48.592;8.858;2023-06-26T07:01:28;25.60;97.40
23124;DHT22;11731;48.592;8.858;2023-06-26T07:03:55;25.70;97.60
23124;DHT22;11731;48.592;8.858;2023-06-26T07:06:23;25.30;98.20
23124;DHT22;11731;48.592;8.858;2023-06-26T07:08:51;25.30;97.90
23124;DHT22;11731;48.592;8.858;2023-06-26T07:11:18;25.80;98.00
23124;DHT22;11731;48.592;8.858;2023-06-26T07:13:45;26.00;97.40
23124;DHT22;11731;48.592;8.858;2023-06-26T07:16:12;25.90;97.80
23124;DHT22;11731;48.592;8.858;2023-06-26T07:18:40;26.20;97.00
23124;DHT22;11731;48.592;8.858;2023-06-26T07:21:07;26.80;96.30
23124;DHT22;11731;48.592;8.858;2023-06-26T07:23:34;26.90;96.00
23124;DHT22;11731;48.592;8.858;2023-06-26T07:26:03;27.20;95.30
23124;DHT22;11731;48.592;8.858;2023-06-26T07:28:30;27.40;94.80
23124;DHT22;11731;48.592;8.858;2023-06-26T07:30:56;27.70;94.60
23124;DHT22;11731;48.592;8.858;2023-06-26T07:33:23;27.90;94.60
23124;DHT22;11731;48.592;8.858;2023-06-26T07:35:50;27.80;95.10
23124;DHT22;11731;48.592;8.858;2023-06-26T07:38:17;28.00;94.50
23124;DHT22;11731;48.592;8.858;2023-06-26T07:40:44;28.30;93.80
23124;DHT22;11731;48.592;8.858;2023-06-26T07:43:12;28.40;93.50
23124;DHT22;11731;48.592;8.858;2023-06-26T07:45:39;28.60;92.50
23124;DHT22;11731;48.592;8.858;2023-06-26T07:48:06;28.90;92.60
23124;DHT22;11731;48.592;8.858;2023-06-26T07:50:34;28.80;92.20
23124;DHT22;11731;48.592;8.858;2023-06-26T07:53:01;29.00;91.50
23124;DHT22;11731;48.592;8.858;2023-06-26T07:55:28;29.10;91.20
23124;DHT22;11731;48.592;8.858;2023-06-26T07:57:55;29.40;90.90
23124;DHT22;11731;48.592;8.858;2023-06-26T08:00:24;29.40;90.50
23124;DHT22;11731;48.592;8.858;2023-06-26T08:02:51;28.80;87.70
23124;DHT22;11731;48.592;8.858;2023-06-26T08:05:18;28.40;85.80
23124;DHT22;11731;48.592;8.858;2023-06-26T08:07:45;28.30;86.40
23124;DHT22;11731;48.592;8.858;2023-06-26T08:10:12;28.30;85.40
23124;DHT22;11731;48.592;8.858;2023-06-26T08:12:39;28.20;85.00
23124;DHT22;11731;48.592;8.858;2023-06-26T08:15:08;28.30;86.60
23124;DHT22;11731;48.592;8.858;2023-06-26T08:17:37;28.30;85.40
23124;DHT22;11731;48.592;8.858;2023-06-26T08:20:05;28.60;84.20
23124;DHT22;11731;48.592;8.858;2023-06-26T08:22:33;29.00;84.30
23124;DHT22;11731;48.592;8.858;2023-06-26T08:25:00;29.10;83.70
23124;DHT22;11731;48.592;8.858;2023-06-26T08:27:27;29.10;81.80
23124;DHT22;11731;48.592;8.858;2023-06-26T08:29:54;29.30;81.80
23124;DHT22;11731;48.592;8.858;2023-06-26T08:32:21;29.30;80.50
23124;DHT22;11731;48.592;8.858;2023-06-26T08:34:49;29.30;79.90
23124;DHT22;11731;48.592;8.858;2023-06-26T08:37:17;29.40;80.80
23124;DHT22;11731;48.592;8.858;2023-06-26T08:39:44;29.60;79.80
23124;DHT22;11731;48.592;8.858;2023-06-26T08:42:11;29.50;80.50
23124;DHT22;11731;48.592;8.858;2023-06-26T08:44:38;29.40;78.20
23124;DHT22;11731;48.592;8.858;2023-06-26T08:47:05;29.70;77.30
23124;DHT22;11731;48.592;8.858;2023-06-26T08:49:37;29.90;78.00
23124;DHT22;11731;48.592;8.858;2023-06-26T08:52:13;30.20;77.60
23124;DHT22;11731;48.592;8.858;2023-06-26T08:54:46;30.20;75.30
23124;DHT22;11731;48.592;8.858;2023-06-26T08:57:17;30.30;77.00
23124;DHT22;11731;48.592;8.858;2023-06-26T08:59:45;30.30;76.80
23124;DHT22;11731;48.592;8.858;2023-06-26T09:02:12;30.30;76.70
23124;DHT22;11731;48.592;8.858;2023-06-26T09:04:40;30.10;73.40
23124;DHT22;11731;48.592;8.858;2023-06-26T09:07:08;29.80;74.90
23124;DHT22;11731;48.592;8.858;2023-06-26T09:09:35;29.80;76.20
23124;DHT22;11731;48.592;8.858;2023-06-26T09:12:04;30.00;75.00
23124;DHT22;11731;48.592;8.858;2023-06-26T09:14:31;30.40;74.30
23124;DHT22;11731;48.592;8.858;2023-06-26T09:16:58;30.40;76.20
23124;DHT22;11731;48.592;8.858;2023-06-26T09:19:25;30.50;74.60
23124;DHT22;11731;48.592;8.858;2023-06-26T09:21:53;30.50;73.40
23124;DHT22;11731;48.592;8.858;2023-06-26T09:24:22;30.80;73.00
23124;DHT22;11731;48.592;8.858;2023-06-26T09:26:49;30.90;73.90
23124;DHT22;11731;48.592;8.858;2023-06-26T09:29:17;30.80;73.40
23124;DHT22;11731;48.592;8.858;2023-06-26T09:31:44;30.70;73.30
23124;DHT22;11731;48.592;8.858;2023-06-26T09:34:11;30.70;73.00
23124;DHT22;11731;48.592;8.858;2023-06-26T09:36:38;30.70;72.20
23124;DHT22;11731;48.592;8.858;2023-06-26T09:39:08;30.70;72.50
23124;DHT22;11731;48.592;8.858;2023-06-26T09:41:38;30.60;71.80
23124;DHT22;11731;48.592;8.858;2023-06-26T09:44:07;30.40;72.20
23124;DHT22;11731;48.592;8.858;2023-06-26T09:46:38;30.30;71.80
23124;DHT22;11731;48.592;8.858;2023-06-26T09:49:06;30.20;70.80
23124;DHT22;11731;48.592;8.858;2023-06-26T09:51:34;30.60;71.90
23124;DHT22;11731;48.592;8.858;2023-06-26T09:54:02;30.50;71.70
23124;DHT22;11731;48.592;8.858;2023-06-26T09:56:32;30.50;71.20
23124;DHT22;11731;48.592;8.858;2023-06-26T09:59:02;30.70;73.10
23124;DHT22;11731;48.592;8.858;2023-06-26T10:01:30;30.70;71.90
23124;DHT22;11731;48.592;8.858;2023-06-26T10:03:57;31.10;71.60
23124;DHT22;11731;48.592;8.858;2023-06-26T10:06:27;31.10;71.50
23124;DHT22;11731;48.592;8.858;2023-06-26T10:09:03;31.00;71.60
23124;DHT22;11731;48.592;8.858;2023-06-26T10:11:34;30.90;71.00
23124;DHT22;11731;48.592;8.858;2023-06-26T10:14:04;31.00;71.40
23124;DHT22;11731;48.592;8.858;2023-06-26T10:16:35;30.90;72.00
23124;DHT22;11731;48.592;8.858;2023-06-26T10:19:06;30.90;72.20
23124;DHT22;11731;48.592;8.858;2023-06-26T10:21:35;30.30;75.10
23124;DHT22;11731;48.592;8.858;2023-06-26T10:24:05;30.00;76.30
23124;DHT22;11731;48.592;8.858;2023-06-26T10:26:40;29.90;77.00
23124;DHT22;11731;48.592;8.858;2023-06-26T10:29:10;29.90;77.10
23124;DHT22;11731;48.592;8.858;2023-06-26T10:31:41;29.90;78.20
23124;DHT22;11731;48.592;8.858;2023-06-26T10:34:11;30.00;77.50
23124;DHT22;11731;48.592;8.858;2023-06-26T10:36:38;30.10;77.80
23124;DHT22;11731;48.592;8.858;2023-06-26T10:39:06;29.60;77.40
23124;DHT22;11731;48.592;8.858;2023-06-26T10:41:37;29.80;80.10
23124;DHT22;11731;48.592;8.858;2023-06-26T10:44:10;29.80;78.80
23124;DHT22;11731;48.592;8.858;2023-06-26T10:46:51;29.90;79.10
23124;DHT22;11731;48.592;8.858;2023-06-26T10:49:19;30.30;79.90
23124;DHT22;11731;48.592;8.858;2023-06-26T10:51:47;29.90;80.60
23124;DHT22;11731;48.592;8.858;2023-06-26T10:54:16;29.70;82.00
23124;DHT22;11731;48.592;8.858;2023-06-26T10:56:54;29.20;81.70
23124;DHT22;11731;48.592;8.858;2023-06-26T10:59:45;28.90;83.30
23124;DHT22;11731;48.592;8.858;2023-06-26T11:02:55;28.90;83.60
23124;DHT22;11731;48.592;8.858;2023-06-26T11:05:37;29.10;83.70
23124;DHT22;11731;48.592;8.858;2023-06-26T11:08:10;29.20;80.90
23124;DHT22;11731;48.592;8.858;2023-06-26T11:10:52;29.10;81.00
23124;DHT22;11731;48.592;8.858;2023-06-26T11:13:19;29.20;82.50
23124;DHT22;11731;48.592;8.858;2023-06-26T11:15:52;29.50;81.50
23124;DHT22;11731;48.592;8.858;2023-06-26T11:18:22;29.20;81.60
23124;DHT22;11731;48.592;8.858;2023-06-26T11:20:50;29.40;83.60
23124;DHT22;11731;48.592;8.858;2023-06-26T11:23:22;29.80;80.40
23124;DHT22;11731;48.592;8.858;2023-06-26T11:25:59;30.30;81.10
23124;DHT22;11731;48.592;8.858;2023-06-26T11:28:51;30.20;80.60
23124;DHT22;11731;48.592;8.858;2023-06-26T11:31:29;30.20;80.10
23124;DHT22;11731;48.592;8.858;2023-06-26T11:34:06;30.20;80.30
23124;DHT22;11731;48.592;8.858;2023-06-26T11:36:48;30.20;79.60
23124;DHT22;11731;48.592;8.858;2023-06-26T11:39:21;30.10;79.80
23124;DHT22;11731;48.592;8.858;2023-06-26T11:42:33;30.00;80.60
23124;DHT22;11731;48.592;8.858;2023-06-26T11:45:04;30.10;82.10
23124;DHT22;11731;48.592;8.858;2023-06-26T11:47:32;30.10;81.90
23124;DHT22;11731;48.592;8.858;2023-06-26T11:49:59;29.80;82.40
23124;DHT22;11731;48.592;8.858;2023-06-26T11:52:32;29.80;82.60
23124;DHT22;11731;48.592;8.858;2023-06-26T11:54:59;30.30;81.90
23124;DHT22;11731;48.592;8.858;2023-06-26T11:57:26;30.20;81.80
23124;DHT22;11731;48.592;8.858;2023-06-26T11:59:53;30.00;83.20
23124;DHT22;11731;48.592;8.858;2023-06-26T12:02:21;30.40;82.80
23124;DHT22;11731;48.592;8.858;2023-06-26T12:04:50;30.30;80.50
23124;DHT22;11731;48.592;8.858;2023-06-26T12:07:17;30.20;83.00
23124;DHT22;11731;48.592;8.858;2023-06-26T12:09:46;29.90;83.10
23124;DHT22;11731;48.592;8.858;2023-06-26T12:12:16;29.50;84.20
23124;DHT22;11731;48.592;8.858;2023-06-26T12:14:43;29.80;85.00
23124;DHT22;11731;48.592;8.858;2023-06-26T12:17:11;29.80;84.60
23124;DHT22;11731;48.592;8.858;2023-06-26T12:19:42;29.80;84.30
23124;DHT22;11731;48.592;8.858;2023-06-26T12:22:11;29.80;82.80
23124;DHT22;11731;48.592;8.858;2023-06-26T12:24:38;29.70;84.60
23124;DHT22;11731;48.592;8.858;2023-06-26T12:27:08;29.70;85.80
23124;DHT22;11731;48.592;8.858;2023-06-26T12:29:36;29.40;86.30
23124;DHT22;11731;48.592;8.858;2023-06-26T12:32:03;29.30;87.80
23124;DHT22;11731;48.592;8.858;2023-06-26T12:34:33;29.40;88.00
23124;DHT22;11731;48.592;8.858;2023-06-26T12:37:01;29.10;88.10
23124;DHT22;11731;48.592;8.858;2023-06-26T12:39:45;29.00;89.40
23124;DHT22;11731;48.592;8.858;2023-06-26T12:42:14;29.30;87.80
23124;DHT22;11731;48.592;8.858;2023-06-26T12:44:41;29.40;87.60
23124;DHT22;11731;48.592;8.858;2023-06-26T12:47:08;29.50;86.90
23124;DHT22;11731;48.592;8.858;2023-06-26T12:49:36;29.60;87.00
23124;DHT22;11731;48.592;8.858;2023-06-26T12:52:05;29.80;86.70
23124;DHT22;11731;48.592;8.858;2023-06-26T12:54:35;29.70;86.70
23124;DHT22;11731;48.592;8.858;2023-06-26T12:57:02;29.70;86.80
23124;DHT22;11731;48.592;8.858;2023-06-26T12:59:30;29.60;86.60
23124;DHT22;11731;48.592;8.858;2023-06-26T13:01:56;29.60;87.00
23124;DHT22;11731;48.592;8.858;2023-06-26T13:04:23;29.60;86.50
23124;DHT22;11731;48.592;8.858;2023-06-26T13:06:50;29.60;85.70
23124;DHT22;11731;48.592;8.858;2023-06-26T13:09:20;29.50;86.80
23124;DHT22;11731;48.592;8.858;2023-06-26T13:11:48;29.20;86.60
23124;DHT22;11731;48.592;8.858;2023-06-26T13:14:15;29.10;87.70
23124;DHT22;11731;48.592;8.858;2023-06-26T13:16:42;28.90;86.70
23124;DHT22;11731;48.592;8.858;2023-06-26T13:19:09;28.80;88.40
23124;DHT22;11731;48.592;8.858;2023-06-26T13:21:36;29.10;86.70
23124;DHT22;11731;48.592;8.858;2023-06-26T13:24:03;28.90;86.80
23124;DHT22;11731;48.592;8.858;2023-06-26T13:26:31;29.00;87.00
23124;DHT22;11731;48.592;8.858;2023-06-26T13:28:59;29.00;86.70
23124;DHT22;11731;48.592;8.858;2023-06-26T13:31:26;29.20;86.80
23124;DHT22;11731;48.592;8.858;2023-06-26T13:33:53;29.10;86.20
23124;DHT22;11731;48.592;8.858;2023-06-26T13:36:20;29.20;85.60
23124;DHT22;11731;48.592;8.858;2023-06-26T13:38:47;29.20;85.20
23124;DHT22;11731;48.592;8.858;2023-06-26T13:41:21;29.00;85.50
23124;DHT22;11731;48.592;8.858;2023-06-26T13:43:47;29.40;85.40
23124;DHT22;11731;48.592;8.858;2023-06-26T13:46:16;29.10;84.90
23124;DHT22;11731;48.592;8.858;2023-06-26T13:48:43;29.20;84.30
23124;DHT22;11731;48.592;8.858;2023-06-26T13:51:10;29.20;84.00
23124;DHT22;11731;48.592;8.858;2023-06-26T13:53:37;28.90;83.90
23124;DHT22;11731;48.592;8.858;2023-06-26T13:56:04;28.40;85.20
23124;DHT22;11731;48.592;8.858;2023-06-26T13:58:31;28.50;84.90
23124;DHT22;11731;48.592;8.858;2023-06-26T14:00:59;28.80;85.00
23124;DHT22;11731;48.592;8.858;2023-06-26T14:03:27;29.20;83.20
23124;DHT22;11731;48.592;8.858;2023-06-26T14:05:54;29.30;82.50
23124;DHT22;11731;48.592;8.858;2023-06-26T14:08:21;29.60;82.20
23124;DHT22;11731;48.592;8.858;2023-06-26T14:10:48;29.60;81.10
23124;DHT22;11731;48.592;8.858;2023-06-26T14:13:15;29.60;82.50
23124;DHT22;11731;48.592;8.858;2023-06-26T14:15:42;29.80;81.60
23124;DHT22;11731;48.592;8.858;2023-06-26T14:18:09;29.90;80.30
23124;DHT22;11731;48.592;8.858;2023-06-26T14:20:38;29.90;78.80
23124;DHT22;11731;48.592;8.858;2023-06-26T14:23:05;29.90;79.50
23124;DHT22;11731;48.592;8.858;2023-06-26T14:25:32;30.10;78.90
23124;DHT22;11731;48.592;8.858;2023-06-26T14:27:59;30.30;78.70
23124;DHT22;11731;48.592;8.858;2023-06-26T14:30:26;30.30;78.10
23124;DHT22;11731;48.592;8.858;2023-06-26T14:32:53;29.70;78.50
23124;DHT22;11731;48.592;8.858;2023-06-26T14:35:19;29.30;79.50
23124;DHT22;11731;48.592;8.858;2023-06-26T14:37:48;29.30;79.50
23124;DHT22;11731;48.592;8.858;2023-06-26T14:40:15;29.30;79.10
23124;DHT22;11731;48.592;8.858;2023-06-26T14:42:42;29.20;79.70
23124;DHT22;11731;48.592;8.858;2023-06-26T14:45:11;29.50;79.00
23124;DHT22;11731;48.592;8.858;2023-06-26T14:47:37;29.40;79.20
23124;DHT22;11731;48.592;8.858;2023-06-26T14:50:05;28.90;79.80
23124;DHT22;11731;48.592;8.858;2023-06-26T14:52:33;29.10;80.20
23124;DHT22;11731;48.592;8.858;2023-06-26T14:55:01;29.00;80.20
23124;DHT22;11731;48.592;8.858;2023-06-26T14:57:28;29.10;80.30
23124;DHT22;11731;48.592;8.858;2023-06-26T14:59:54;29.30;79.90
23124;DHT22;11731;48.592;8.858;2023-06-26T15:02:23;29.40;80.10
23124;DHT22;11731;48.592;8.858;2023-06-26T15:04:50;29.60;79.30
23124;DHT22;11731;48.592;8.858;2023-06-26T15:07:17;29.50;79.40
23124;DHT22;11731;48.592;8.858;2023-06-26T15:09:44;29.20;79.20
23124;DHT22;11731;48.592;8.858;2023-06-26T15:12:12;29.20;79.00
23124;DHT22;11731;48.592;8.858;2023-06-26T15:14:39;28.60;80.70
23124;DHT22;11731;48.592;8.858;2023-06-26T15:17:06;28.70;80.80
23124;DHT22;11731;48.592;8.858;2023-06-26T15:19:33;28.60;80.90
23124;DHT22;11731;48.592;8.858;2023-06-26T15:22:00;28.50;81.20
23124;DHT22;11731;48.592;8.858;2023-06-26T15:24:27;28.60;81.10
23124;DHT22;11731;48.592;8.858;2023-06-26T15:26:54;28.70;80.70
23124;DHT22;11731;48.592;8.858;2023-06-26T15:29:22;28.70;80.40
23124;DHT22;11731;48.592;8.858;2023-06-26T15:31:49;28.80;80.70
23124;DHT22;11731;48.592;8.858;2023-06-26T15:34:16;28.90;80.50
23124;DHT22;11731;48.592;8.858;2023-06-26T15:36:43;28.50;80.70